Time;durP1;ratioP1;P1;durP2;ratioP2;P2;SDS_P1;SDS_P2;PMS_P1;PMS_P2;Temp;Humidity;BMP_temperature;BMP_pressure;BME280_temperature;BME280_humidity;BME280_pressure;Samples;Min_cycle;Max_cycle;Signal;HPM_P1;HPM_P2
2021/12/01 00:04:10;;;;;;;3.17;2.37;;;9.70;99.90;;;;;;10422097;28;20288;-90
2021/12/01 00:09:13;;;;;;;2.30;1.80;;;8.80;99.90;;;;;;10429573;28;20404;-92
2021/12/01 00:14:16;;;;;;;2.80;2.50;;;8.60;99.90;;;;;;10415434;28;20686;-93
2021/12/01 00:19:18;;;;;;;1.87;1.57;;;8.60;99.90;;;;;;10431080;28;20252;-94
2021/12/01 00:24:22;;;;;;;3.13;2.47;;;11.30;99.90;;;;;;10419506;28;20254;-94
2021/12/01 00:29:27;;;;;;;2.80;1.97;;;5.70;98.00;;;;;;10421155;28;20238;-93
2021/12/01 00:34:32;;;;;;;2.30;1.20;;;11.10;99.90;;;;;;10421031;28;20223;-94
2021/12/01 00:39:35;;;;;;;2.57;1.30;;;13.00;99.90;;;;;;10431920;28;20282;-93
2021/12/01 00:44:46;;;;;;;3.90;2.20;;;13.40;99.90;;;;;;10437468;28;20580;-92
2021/12/01 00:49:49;;;;;;;1.70;1.10;;;13.40;99.90;;;;;;10437214;28;20295;-94
2021/12/01 00:54:53;;;;;;;4.57;1.83;;;13.80;99.90;;;;;;10421178;28;20261;-92
2021/12/01 00:59:56;;;;;;;3.03;1.47;;;13.50;99.90;;;;;;10412229;28;20837;-92
2021/12/01 01:04:59;;;;;;;2.97;1.77;;;13.40;99.90;;;;;;10417803;28;20226;-94
2021/12/01 01:20:55;;;;;;;1.90;1.63;;;13.50;99.90;;;;;;10437382;28;20262;-92
2021/12/01 01:25:59;;;;;;;2.70;1.67;;;12.80;99.90;;;;;;10437170;28;21022;-93
2021/12/01 01:31:02;;;;;;;2.03;1.30;;;13.50;99.90;;;;;;10436570;28;20241;-93
2021/12/01 01:36:05;;;;;;;1.47;1.17;;;13.80;99.90;;;;;;10436957;28;20235;-94
2021/12/01 01:41:10;;;;;;;2.23;1.43;;;13.90;99.90;;;;;;10443748;28;20225;-93
2021/12/01 01:46:16;;;;;;;1.87;1.33;;;13.90;99.90;;;;;;10427381;28;20228;-92
2021/12/01 01:51:25;;;;;;;3.03;1.30;;;13.90;99.90;;;;;;10427063;28;20242;-93
2021/12/01 01:56:28;;;;;;;4.07;1.97;;;13.90;99.90;;;;;;10427721;28;20279;-94
2021/12/01 02:01:44;;;;;;;4.23;1.57;;;14.00;99.90;;;;;;10421345;28;20230;-93
2021/12/01 02:06:48;;;;;;;2.00;1.37;;;13.90;99.90;;;;;;10443057;28;21003;-92
2021/12/01 02:12:00;;;;;;;1.50;1.30;;;14.00;99.90;;;;;;10426560;28;20264;-93
2021/12/01 02:17:03;;;;;;;2.70;1.83;;;14.20;99.90;;;;;;10423954;28;20376;-93
2021/12/01 02:22:06;;;;;;;1.90;1.33;;;14.20;99.90;;;;;;10442331;28;20231;-93
2021/12/01 02:27:13;;;;;;;2.07;1.30;;;14.10;99.90;;;;;;10424286;28;20590;-93
2021/12/01 02:32:15;;;;;;;1.67;1.30;;;14.10;99.90;;;;;;10460144;28;20229;-93
2021/12/01 02:37:19;;;;;;;2.10;1.27;;;14.20;99.90;;;;;;10425037;28;20233;-93
2021/12/01 02:42:23;;;;;;;2.30;1.63;;;14.20;99.90;;;;;;10440798;28;20234;-93
2021/12/01 02:47:27;;;;;;;3.10;1.80;;;14.00;99.90;;;;;;10422680;28;20285;-94
2021/12/01 02:52:35;;;;;;;3.83;1.90;;;13.90;99.90;;;;;;10424610;28;20233;-93
2021/12/01 02:57:47;;;;;;;3.10;2.10;;;13.90;99.90;;;;;;10440353;28;20237;-93
2021/12/01 03:02:52;;;;;;;4.17;2.17;;;13.80;99.90;;;;;;10439689;28;20248;-92
2021/12/01 03:07:57;;;;;;;2.47;2.00;;;13.80;99.90;;;;;;10439935;28;20516;-92
2021/12/01 03:13:00;;;;;;;4.03;2.57;;;13.80;99.90;;;;;;10439140;28;20243;-93
2021/12/01 03:18:03;;;;;;;2.67;2.20;;;14.00;99.90;;;;;;10439339;28;20250;-92
2021/12/01 03:23:06;;;;;;;2.53;1.97;;;14.10;99.90;;;;;;10423550;28;20589;-94
2021/12/01 03:28:09;;;;;;;4.57;1.97;;;14.20;99.90;;;;;;10439347;28;20286;-92
2021/12/01 03:33:16;;;;;;;4.73;2.50;;;14.20;99.90;;;;;;10423197;28;20241;-92
2021/12/01 03:38:22;;;;;;;2.57;2.00;;;14.30;99.90;;;;;;10439037;28;20231;-92
2021/12/01 03:43:27;;;;;;;3.40;2.23;;;14.30;99.90;;;;;;10448068;28;20252;-93
2021/12/01 03:48:31;;;;;;;3.23;2.10;;;14.30;99.90;;;;;;10438278;28;20279;-94
2021/12/01 03:53:35;;;;;;;2.87;1.93;;;14.30;99.90;;;;;;10439125;28;20292;-94
2021/12/01 03:58:37;;;;;;;3.83;2.40;;;14.00;99.90;;;;;;10437259;28;20257;-96
2021/12/01 04:03:41;;;;;;;2.70;2.03;;;13.90;99.90;;;;;;10421617;28;20233;-96
2021/12/01 04:08:44;;;;;;;3.47;2.33;;;13.70;99.90;;;;;;10437694;28;20239;-94
2021/12/01 04:13:47;;;;;;;3.90;2.40;;;13.60;99.90;;;;;;10437616;28;20296;-94
2021/12/01 04:18:49;;;;;;;3.40;2.20;;;13.50;99.90;;;;;;10420689;28;20238;-95
2021/12/01 04:23:54;;;;;;;4.03;2.13;;;13.60;99.90;;;;;;10420782;28;20683;-95
2021/12/01 04:28:57;;;;;;;4.17;2.30;;;13.60;99.90;;;;;;10426435;28;20241;-94
2021/12/01 04:34:00;;;;;;;4.23;2.37;;;13.50;99.90;;;;;;10449728;28;20234;-93
2021/12/01 04:39:06;;;;;;;2.63;2.43;;;13.40;99.90;;;;;;10450926;28;20757;-93
2021/12/01 04:44:11;;;;;;;3.73;2.67;;;13.40;99.90;;;;;;10439662;28;20206;-94
2021/12/01 04:49:17;;;;;;;4.83;3.23;;;13.40;99.90;;;;;;10420580;28;20235;-95
2021/12/01 04:54:21;;;;;;;5.13;3.03;;;13.20;99.90;;;;;;10420322;28;20281;-94
2021/12/01 04:59:26;;;;;;;5.03;3.27;;;13.20;99.90;;;;;;10420286;28;20230;-95
2021/12/01 05:04:29;;;;;;;4.40;3.00;;;13.10;99.90;;;;;;10436695;28;20241;-95
2021/12/01 05:09:32;;;;;;;3.07;2.33;;;13.10;99.90;;;;;;10435965;28;20230;-94
2021/12/01 05:14:36;;;;;;;5.70;3.90;;;13.20;99.90;;;;;;10425694;28;20234;-96
2021/12/01 05:19:38;;;;;;;4.83;2.77;;;13.20;99.90;;;;;;10462032;28;20233;-95
2021/12/01 05:24:41;;;;;;;6.50;3.90;;;13.30;99.90;;;;;;10442925;28;20348;-95
2021/12/01 05:29:45;;;;;;;5.63;3.67;;;13.20;99.90;;;;;;10444301;28;20284;-95
2021/12/01 05:34:47;;;;;;;4.87;3.10;;;13.20;99.90;;;;;;10443896;28;20284;-94
2021/12/01 05:39:51;;;;;;;11.40;6.83;;;13.00;99.90;;;;;;10443355;28;20234;-92
2021/12/01 05:44:55;;;;;;;3.37;2.70;;;13.00;99.90;;;;;;10426132;28;20778;-91
2021/12/01 05:49:58;;;;;;;6.03;3.97;;;13.00;99.90;;;;;;10442688;28;20253;-92
2021/12/01 05:55:01;;;;;;;5.20;3.87;;;13.00;99.90;;;;;;10443379;28;20691;-93
2021/12/01 06:00:06;;;;;;;8.07;4.23;;;13.10;99.90;;;;;;10406361;28;20649;-92
2021/12/01 06:05:22;;;;;;;4.63;3.60;;;13.10;99.90;;;;;;10449260;28;20259;-93
2021/12/01 06:10:24;;;;;;;5.27;3.50;;;13.10;99.90;;;;;;10431770;28;20242;-93
2021/12/01 06:15:29;;;;;;;6.30;4.37;;;13.10;99.90;;;;;;10419106;28;20304;-91
2021/12/01 06:20:32;;;;;;;5.77;4.20;;;13.20;99.90;;;;;;10455469;28;20227;-91
2021/12/01 06:25:35;;;;;;;4.40;3.50;;;13.20;99.90;;;;;;10443510;28;20699;-90
2021/12/01 06:30:38;;;;;;;5.77;4.07;;;13.20;99.90;;;;;;10445197;28;20597;-93
2021/12/01 06:35:47;;;;;;;6.37;4.10;;;13.20;99.90;;;;;;10446042;28;20198;-91
2021/12/01 06:40:50;;;;;;;6.17;4.07;;;13.10;99.90;;;;;;10425105;28;20809;-92
2021/12/01 06:45:53;;;;;;;12.60;7.70;;;13.10;99.90;;;;;;10434084;28;20308;-91
2021/12/01 06:50:56;;;;;;;24.77;10.90;;;12.90;99.90;;;;;;10436416;28;20718;-93
2021/12/01 06:55:58;;;;;;;12.83;7.00;;;12.50;99.90;;;;;;10436887;28;20239;-92
2021/12/01 07:01:04;;;;;;;11.73;6.07;;;12.20;99.90;;;;;;10423638;28;20341;-91
2021/12/01 07:06:07;;;;;;;9.90;5.43;;;12.30;99.90;;;;;;10434704;28;20280;-93
2021/12/01 07:11:10;;;;;;;16.77;9.30;;;12.10;99.90;;;;;;10429300;28;20331;-91
2021/12/01 07:16:13;;;;;;;28.10;14.73;;;12.30;99.90;;;;;;10426778;28;20320;-89
2021/12/01 07:21:16;;;;;;;27.77;13.27;;;11.20;80.80;;;;;;10414848;28;20612;-89
2021/12/01 07:26:19;;;;;;;23.80;12.50;;;11.90;87.40;;;;;;10416361;28;20241;-89
2021/12/01 07:31:21;;;;;;;24.47;12.70;;;12.20;88.40;;;;;;10432449;28;20295;-90
2021/12/01 07:36:24;;;;;;;24.17;11.30;;;12.10;87.90;;;;;;10429841;28;20668;-91
2021/12/01 07:41:28;;;;;;;22.67;12.43;;;12.00;88.80;;;;;;10431260;28;20298;-91
2021/12/01 07:46:30;;;;;;;24.80;12.17;;;12.20;89.50;;;;;;10444075;28;20234;-90
2021/12/01 07:51:33;;;;;;;9.00;5.87;;;12.20;90.80;;;;;;10431175;28;20257;-90
2021/12/01 07:56:36;;;;;;;11.23;5.80;;;12.00;88.40;;;;;;10429595;28;20303;-92
2021/12/01 08:01:38;;;;;;;18.30;9.07;;;11.50;85.00;;;;;;10429234;28;20233;-91
2021/12/01 08:06:43;;;;;;;14.60;7.93;;;11.50;93.80;;;;;;10447594;28;20258;-88
2021/12/01 08:11:46;;;;;;;17.33;7.87;;;11.50;90.00;;;;;;10400221;28;20292;-90
2021/12/01 08:16:49;;;;;;;19.67;9.20;;;11.30;89.00;;;;;;10453613;28;20251;-90
2021/12/01 08:21:51;;;;;;;15.47;8.57;;;11.20;95.80;;;;;;10414744;28;20249;-90
2021/12/01 08:26:54;;;;;;;15.30;7.17;;;11.20;93.40;;;;;;10430349;28;20256;-91
2021/12/01 08:31:59;;;;;;;14.20;8.70;;;11.00;93.50;;;;;;10431719;28;20256;-92
2021/12/01 08:37:02;;;;;;;16.83;8.37;;;11.10;90.70;;;;;;10437252;28;20259;-91
2021/12/01 08:42:05;;;;;;;15.60;7.97;;;11.20;99.50;;;;;;10452536;28;20278;-93
2021/12/01 08:47:08;;;;;;;11.73;8.07;;;11.30;99.90;;;;;;10415824;28;20814;-91
2021/12/01 08:52:11;;;;;;;15.53;8.87;;;11.40;92.40;;;;;;10411385;28;20773;-89
2021/12/01 08:57:15;;;;;;;12.83;7.67;;;11.60;99.90;;;;;;10447109;28;20374;-89
2021/12/01 09:02:18;;;;;;;15.50;7.50;;;11.10;99.30;;;;;;10427041;28;20253;-91
2021/12/01 09:07:21;;;;;;;16.43;8.97;;;11.40;99.90;;;;;;10430024;28;20236;-90
2021/12/01 09:12:24;;;;;;;15.03;8.33;;;11.10;99.90;;;;;;10422518;28;20276;-89
2021/12/01 09:17:26;;;;;;;16.77;8.47;;;11.60;99.90;;;;;;10427822;28;20287;-91
2021/12/01 09:22:33;;;;;;;13.10;6.87;;;11.60;99.90;;;;;;10451613;28;20227;-91
2021/12/01 09:27:36;;;;;;;9.87;6.40;;;11.50;99.00;;;;;;10417705;28;20233;-93
2021/12/01 09:32:39;;;;;;;12.43;7.07;;;4.30;99.90;;;;;;10446758;28;20309;-91
2021/12/01 09:37:42;;;;;;;12.33;6.90;;;6.50;99.90;;;;;;10443022;28;20235;-91
2021/12/01 09:42:51;;;;;;;12.67;6.73;;;8.80;99.90;;;;;;10411335;28;20227;-90
2021/12/01 09:47:54;;;;;;;13.27;7.97;;;9.60;99.90;;;;;;10423546;28;20262;-90
2021/12/01 09:52:57;;;;;;;10.00;5.17;;;10.00;99.90;;;;;;10417297;28;20708;-91
2021/12/01 09:58:12;;;;;;;11.80;6.63;;;9.90;99.90;;;;;;10433828;28;20227;-92
2021/12/01 10:03:16;;;;;;;11.60;5.63;;;10.30;99.90;;;;;;10450877;28;20276;-91
2021/12/01 10:08:26;;;;;;;10.20;5.50;;;10.50;99.90;;;;;;10458552;28;20228;-92
2021/12/01 10:13:37;;;;;;;11.67;7.53;;;10.40;99.90;;;;;;10445283;28;20321;-92
2021/12/01 10:18:51;;;;;;;10.67;6.00;;;10.80;99.90;;;;;;10446615;28;20253;-92
2021/12/01 10:24:00;;;;;;;9.73;6.13;;;10.90;99.90;;;;;;10448090;28;20232;-92
2021/12/01 10:29:06;;;;;;;12.63;6.60;;;11.10;99.90;;;;;;10438647;28;20240;-91
2021/12/01 10:34:30;;;;;;;10.10;6.47;;;11.30;99.90;;;;;;10419383;28;20332;-92
2021/12/01 10:39:33;;;;;;;10.37;7.27;;;11.50;99.90;;;;;;10437368;28;20642;-93
2021/12/01 10:44:36;;;;;;;11.67;7.10;;;11.50;99.90;;;;;;10423383;28;20216;-92
2021/12/01 10:49:43;;;;;;;11.30;6.23;;;11.30;99.40;;;;;;10423443;28;20256;-92
2021/12/01 10:55:05;;;;;;;9.47;5.87;;;11.50;99.90;;;;;;10453718;28;20330;-88
2021/12/01 11:00:21;;;;;;;9.20;6.23;;;11.40;99.90;;;;;;10449559;28;20353;-88
2021/12/01 11:05:32;;;;;;;8.87;5.73;;;11.30;99.90;;;;;;10448391;28;20259;-88
2021/12/01 11:10:35;;;;;;;11.10;5.83;;;11.80;99.90;;;;;;10430083;28;20298;-89
2021/12/01 11:15:43;;;;;;;10.77;5.90;;;11.50;99.90;;;;;;10437522;28;20312;-89
2021/12/01 11:20:53;;;;;;;9.87;6.10;;;11.50;99.90;;;;;;10428144;28;20259;-89
2021/12/01 11:26:08;;;;;;;13.53;7.00;;;11.00;99.90;;;;;;10449277;28;20251;-89
2021/12/01 11:31:14;;;;;;;9.13;5.60;;;10.70;95.30;;;;;;10427271;28;20259;-89
2021/12/01 11:36:20;;;;;;;14.33;6.97;;;10.20;99.90;;;;;;10437747;28;20235;-89
2021/12/01 11:41:23;;;;;;;7.67;5.17;;;9.90;99.90;;;;;;10444921;28;20277;-89
2021/12/01 11:46:32;;;;;;;13.13;6.80;;;10.40;99.90;;;;;;10420690;28;20231;-96
2021/12/01 11:51:40;;;;;;;14.13;5.53;;;10.70;99.90;;;;;;10411730;28;20247;-93
2021/12/01 11:56:58;;;;;;;9.23;5.03;;;11.50;99.90;;;;;;10426586;28;20232;-95
2021/12/01 12:02:02;;;;;;;11.87;7.17;;;11.90;99.90;;;;;;10438199;28;20258;-93
2021/12/01 12:07:10;;;;;;;11.80;6.60;;;11.00;99.90;;;;;;10438421;28;20701;-94
2021/12/01 12:12:24;;;;;;;11.27;6.13;;;10.80;99.90;;;;;;10433301;28;20243;-93
2021/12/01 12:17:35;;;;;;;13.73;6.77;;;10.50;99.90;;;;;;10416137;28;20735;-94
2021/12/01 12:22:46;;;;;;;12.47;6.13;;;10.60;99.90;;;;;;10435690;28;20292;-91
2021/12/01 12:27:48;;;;;;;9.77;6.27;;;10.20;99.90;;;;;;10416874;28;20258;-93
2021/12/01 12:33:16;;;;;;;10.83;5.97;;;9.70;99.90;;;;;;10445472;28;20271;-91
2021/12/01 12:38:20;;;;;;;11.77;7.87;;;10.30;99.90;;;;;;10432326;28;20195;-93
2021/12/01 12:43:25;;;;;;;13.27;6.67;;;10.80;99.90;;;;;;10415971;28;20233;-93
2021/12/01 12:48:30;;;;;;;11.17;6.20;;;10.60;99.90;;;;;;10431160;28;20206;-91
2021/12/01 12:53:33;;;;;;;12.50;8.20;;;11.00;99.90;;;;;;10451402;28;20333;-93
2021/12/01 12:58:36;;;;;;;10.70;6.10;;;10.50;99.90;;;;;;10431914;28;20236;-92
2021/12/01 13:03:39;;;;;;;13.47;8.77;;;10.40;99.90;;;;;;10430417;28;20231;-92
2021/12/01 13:08:46;;;;;;;12.07;6.80;;;11.00;99.90;;;;;;10431761;28;20239;-92
2021/12/01 13:13:58;;;;;;;12.77;7.63;;;11.10;99.90;;;;;;10419494;28;20241;-92
2021/12/01 13:19:07;;;;;;;16.00;10.20;;;10.60;99.90;;;;;;10411216;28;20311;-89
2021/12/01 13:24:10;;;;;;;15.10;9.80;;;10.70;99.90;;;;;;10426814;28;20236;-89
2021/12/01 13:29:16;;;;;;;11.57;6.03;;;10.10;99.90;;;;;;10418895;28;20849;-92
2021/12/01 13:34:37;;;;;;;20.47;10.37;;;11.20;99.90;;;;;;10416558;28;20798;-87
2021/12/01 13:39:41;;;;;;;16.10;10.13;;;10.20;99.90;;;;;;10440854;28;20228;-87
2021/12/01 13:44:45;;;;;;;26.47;11.20;;;9.90;99.90;;;;;;10433954;28;20235;-90
2021/12/01 13:49:52;;;;;;;15.17;10.00;;;9.90;99.90;;;;;;10445462;28;20281;-91
2021/12/01 13:55:12;;;;;;;19.10;11.27;;;10.40;99.90;;;;;;10459194;28;20279;-92
2021/12/01 14:00:28;;;;;;;12.97;8.47;;;9.90;99.90;;;;;;10433714;28;20301;-92
2021/12/01 14:05:31;;;;;;;18.60;11.47;;;10.10;99.90;;;;;;10427408;28;20707;-92
2021/12/01 14:10:37;;;;;;;8.33;4.77;;;9.50;99.90;;;;;;10436301;28;20263;-92
2021/12/01 14:15:42;;;;;;;12.20;8.40;;;9.70;99.90;;;;;;10418856;28;20264;-92
2021/12/01 14:20:45;;;;;;;15.30;9.10;;;9.90;99.90;;;;;;10433083;28;20310;-91
2021/12/01 14:25:49;;;;;;;12.00;7.90;;;9.60;99.90;;;;;;10434622;28;20632;-92
2021/12/01 14:30:59;;;;;;;16.33;8.87;;;9.50;99.90;;;;;;10452506;28;20327;-93
2021/12/01 14:36:08;;;;;;;12.60;8.23;;;9.60;99.90;;;;;;10397270;28;20264;-92
2021/12/01 14:41:11;;;;;;;19.80;10.43;;;9.90;99.90;;;;;;10423048;28;20231;-92
2021/12/01 14:46:18;;;;;;;22.23;11.93;;;9.50;99.90;;;;;;10394441;28;21913;-94
2021/12/01 14:51:44;;;;;;;21.40;12.03;;;9.10;99.90;;;;;;10437485;28;20239;-93
2021/12/01 14:57:09;;;;;;;18.63;9.13;;;8.40;99.90;;;;;;10453405;28;20227;-93
2021/12/01 15:02:32;;;;;;;17.67;10.20;;;8.80;99.90;;;;;;10417750;28;20253;-91
2021/12/01 15:07:48;;;;;;;17.27;9.77;;;9.20;99.90;;;;;;10445338;28;20226;-93
2021/12/01 15:13:13;;;;;;;17.03;9.60;;;8.40;99.90;;;;;;10432298;28;20230;-94
2021/12/01 15:18:41;;;;;;;11.63;7.60;;;7.90;99.90;;;;;;10429963;28;20227;-94
2021/12/01 15:24:05;;;;;;;12.20;8.07;;;7.90;99.90;;;;;;10453656;28;20231;-94
2021/12/01 15:29:20;;;;;;;15.53;9.07;;;7.60;99.90;;;;;;10419461;28;20304;-93
2021/12/01 15:34:38;;;;;;;16.80;8.90;;;7.80;99.90;;;;;;10428310;28;20270;-94
2021/12/01 15:39:41;;;;;;;7.97;5.97;;;7.50;99.90;;;;;;10416224;28;20249;-94
2021/12/01 15:44:44;;;;;;;14.90;7.80;;;7.70;99.90;;;;;;10415884;28;20281;-92
2021/12/01 15:49:47;;;;;;;17.70;9.30;;;8.00;99.90;;;;;;10433982;28;21097;-94
2021/12/01 15:54:49;;;;;;;15.63;9.30;;;8.30;99.90;;;;;;10427151;28;20255;-92
2021/12/01 15:59:53;;;;;;;20.00;10.27;;;8.10;99.90;;;;;;10429617;28;20255;-91
2021/12/01 16:04:56;;;;;;;15.20;8.63;;;8.50;99.90;;;;;;10412508;28;20674;-92
2021/12/01 16:09:58;;;;;;;13.40;8.60;;;8.30;99.90;;;;;;10411714;28;20245;-92
2021/12/01 16:15:01;;;;;;;8.83;5.30;;;9.10;99.90;;;;;;10425607;28;20258;-93
2021/12/01 16:20:07;;;;;;;15.00;8.77;;;9.40;99.90;;;;;;10419447;28;20258;-92
2021/12/01 16:25:11;;;;;;;10.10;6.47;;;8.50;99.90;;;;;;10425230;28;20802;-93
2021/12/01 16:30:15;;;;;;;10.57;7.47;;;9.80;99.90;;;;;;10411479;28;20288;-90
2021/12/01 16:35:21;;;;;;;18.20;9.90;;;9.60;99.90;;;;;;10421544;28;20219;-89
2021/12/01 16:40:27;;;;;;;17.97;8.23;;;10.30;99.90;;;;;;10444919;28;20388;-92
2021/12/01 16:45:30;;;;;;;17.43;9.73;;;8.90;99.90;;;;;;10427032;28;20227;-93
2021/12/01 16:50:36;;;;;;;14.67;9.03;;;9.30;99.90;;;;;;10454681;28;20231;-93
2021/12/01 16:55:39;;;;;;;19.27;10.83;;;9.10;99.90;;;;;;10433371;28;21743;-91
2021/12/01 17:00:45;;;;;;;18.53;10.07;;;9.30;99.90;;;;;;10453247;28;20267;-92
2021/12/01 17:05:50;;;;;;;11.07;6.47;;;9.80;99.90;;;;;;10436978;28;20659;-92
2021/12/01 17:10:55;;;;;;;23.40;13.00;;;9.70;99.90;;;;;;10413481;28;20661;-92
2021/12/01 17:15:59;;;;;;;24.73;13.03;;;6.20;99.90;;;;;;10431796;28;20292;-93
2021/12/01 17:21:04;;;;;;;24.50;14.03;;;5.60;99.90;;;;;;10433289;28;20254;-93
2021/12/01 17:26:08;;;;;;;41.40;22.17;;;5.50;99.90;;;;;;10416279;28;20285;-93
2021/12/01 17:31:21;;;;;;;28.70;17.50;;;5.40;99.90;;;;;;10429655;28;20261;-92
2021/12/01 17:36:25;;;;;;;32.33;19.33;;;5.40;99.90;;;;;;10430202;28;20223;-93
2021/12/01 17:41:28;;;;;;;24.07;12.43;;;5.40;99.90;;;;;;10421017;28;20343;-95
2021/12/01 17:46:33;;;;;;;24.30;14.40;;;5.60;99.90;;;;;;10435966;28;20226;-89
2021/12/01 17:51:37;;;;;;;23.83;15.20;;;5.50;99.90;;;;;;10448042;28;20257;-94
2021/12/01 17:56:44;;;;;;;28.33;15.67;;;5.40;99.90;;;;;;10441110;28;20225;-95
2021/12/01 18:01:47;;;;;;;18.03;12.00;;;5.40;99.90;;;;;;10439061;28;20223;-93
2021/12/01 18:06:51;;;;;;;24.27;14.37;;;5.40;99.90;;;;;;10413938;28;20260;-91
2021/12/01 18:11:54;;;;;;;16.53;9.70;;;6.10;99.90;;;;;;10429747;28;20333;-93
2021/12/01 18:16:58;;;;;;;19.77;10.77;;;6.90;99.90;;;;;;10412773;28;20308;-93
2021/12/01 18:22:02;;;;;;;21.33;12.83;;;7.50;99.90;;;;;;10424910;28;20298;-92
2021/12/01 18:27:05;;;;;;;23.80;12.57;;;7.90;99.90;;;;;;10440450;28;20245;-93
2021/12/01 18:32:08;;;;;;;18.10;9.37;;;8.10;99.90;;;;;;10440111;28;20234;-92
2021/12/01 18:37:16;;;;;;;19.30;11.63;;;8.30;99.90;;;;;;10433908;28;20750;-94
2021/12/01 18:42:20;;;;;;;18.53;10.07;;;8.60;99.90;;;;;;10401764;28;20262;-93
2021/12/01 18:47:23;;;;;;;17.00;10.40;;;8.60;99.90;;;;;;10427606;28;20710;-93
2021/12/01 18:52:27;;;;;;;12.03;8.23;;;9.20;99.90;;;;;;10475331;28;20299;-94
2021/12/01 18:57:30;;;;;;;16.03;10.10;;;9.30;99.90;;;;;;10471847;28;20753;-93
2021/12/01 19:02:34;;;;;;;15.03;8.60;;;9.20;99.90;;;;;;10419112;28;20231;-92
2021/12/01 19:07:37;;;;;;;13.50;8.00;;;9.10;99.90;;;;;;10398706;28;20262;-95
2021/12/01 19:12:40;;;;;;;18.33;11.53;;;9.20;99.90;;;;;;10405537;28;20235;-94
2021/12/01 19:17:43;;;;;;;16.17;9.87;;;8.80;99.90;;;;;;10419093;28;20238;-92
2021/12/01 19:22:45;;;;;;;17.87;9.73;;;8.80;99.90;;;;;;10438549;28;20231;-96
2021/12/01 19:27:48;;;;;;;17.80;11.23;;;9.40;99.90;;;;;;10426123;28;20226;-96
2021/12/01 19:32:51;;;;;;;19.90;12.40;;;9.00;99.90;;;;;;10458092;28;20682;-94
2021/12/01 19:37:54;;;;;;;11.20;7.23;;;9.20;99.90;;;;;;10454255;28;20231;-89
2021/12/01 19:42:58;;;;;;;16.13;9.33;;;9.90;99.90;;;;;;10432595;28;20238;-88
2021/12/01 19:48:03;;;;;;;14.47;9.77;;;9.60;99.90;;;;;;10430868;28;20234;-89
2021/12/01 19:53:06;;;;;;;16.90;10.53;;;9.50;99.90;;;;;;10430519;28;20362;-89
2021/12/01 19:58:08;;;;;;;16.10;8.60;;;9.90;99.90;;;;;;10415058;28;20292;-94
2021/12/01 20:03:14;;;;;;;10.40;6.90;;;9.90;99.90;;;;;;10452012;28;20256;-90
2021/12/01 20:08:18;;;;;;;15.60;10.07;;;10.50;99.90;;;;;;10432880;28;20315;-91
2021/12/01 20:13:21;;;;;;;16.37;12.20;;;9.10;99.90;;;;;;10415077;28;20258;-92
2021/12/01 20:18:25;;;;;;;17.30;9.37;;;7.50;99.90;;;;;;10407189;28;20258;-93
2021/12/01 20:23:28;;;;;;;16.67;10.37;;;8.00;99.90;;;;;;10428820;28;20276;-93
2021/12/01 20:28:33;;;;;;;17.40;9.57;;;8.90;99.90;;;;;;10413463;28;20262;-93
2021/12/01 20:33:36;;;;;;;17.40;9.23;;;9.30;99.90;;;;;;10446803;28;20258;-91
2021/12/01 20:38:47;;;;;;;13.50;7.90;;;9.90;99.90;;;;;;10444672;28;20237;-93
2021/12/01 20:43:50;;;;;;;16.50;9.63;;;9.90;99.90;;;;;;10412282;28;20250;-92
2021/12/01 20:54:35;;;;;;;15.53;9.37;;;9.20;99.90;;;;;;10448525;28;20262;-92
2021/12/01 20:59:57;;;;;;;13.03;8.77;;;9.50;99.90;;;;;;10417694;28;20199;-93
2021/12/01 21:05:01;;;;;;;11.83;7.90;;;9.30;99.90;;;;;;10433789;28;20231;-93
2021/12/01 21:10:14;;;;;;;11.03;8.30;;;9.50;99.90;;;;;;10462602;28;20259;-94
2021/12/01 21:15:17;;;;;;;15.20;8.07;;;9.30;99.90;;;;;;10418505;28;20262;-94
2021/12/01 21:20:20;;;;;;;12.00;7.13;;;9.30;99.90;;;;;;10435412;28;20235;-93
2021/12/01 21:25:26;;;;;;;11.07;6.67;;;9.30;99.90;;;;;;10418794;28;20260;-94
2021/12/01 21:30:29;;;;;;;9.60;7.30;;;10.20;99.90;;;;;;10457755;28;20227;-94
2021/12/01 21:35:36;;;;;;;10.40;7.33;;;11.10;99.90;;;;;;10419938;28;20235;-94
2021/12/01 21:40:40;;;;;;;8.47;6.17;;;11.60;99.90;;;;;;10405829;28;20249;-93
2021/12/01 21:45:43;;;;;;;11.03;7.20;;;11.80;99.90;;;;;;10458959;28;20217;-94
2021/12/01 21:50:48;;;;;;;11.03;8.17;;;11.10;99.90;;;;;;10435636;28;20223;-94
2021/12/01 21:55:52;;;;;;;11.83;8.07;;;11.20;99.90;;;;;;10443123;28;20234;-95
2021/12/01 22:00:55;;;;;;;16.73;8.20;;;10.70;99.90;;;;;;10444259;28;20302;-94
2021/12/01 22:06:01;;;;;;;15.03;7.90;;;10.20;99.90;;;;;;10437913;28;20261;-93
2021/12/01 22:11:05;;;;;;;14.03;7.60;;;9.70;99.90;;;;;;10433036;28;20356;-92
2021/12/01 22:16:08;;;;;;;10.73;7.23;;;9.70;99.90;;;;;;10414471;28;20288;-92
2021/12/01 22:21:19;;;;;;;10.03;6.60;;;9.00;99.90;;;;;;10418276;28;20262;-92
2021/12/01 22:26:31;;;;;;;8.07;5.73;;;10.60;99.90;;;;;;10429999;28;20336;-92
2021/12/01 22:31:35;;;;;;;7.47;5.20;;;11.60;99.90;;;;;;10435804;28;20670;-92
2021/12/01 22:36:40;;;;;;;12.57;6.47;;;11.50;99.90;;;;;;10435598;28;20341;-91
2021/12/01 22:41:44;;;;;;;9.00;5.30;;;11.90;99.90;;;;;;10421186;28;20284;-91
2021/12/01 22:46:47;;;;;;;6.27;4.67;;;12.60;99.90;;;;;;10438582;28;20250;-91
2021/12/01 22:51:49;;;;;;;10.17;5.33;;;12.50;99.90;;;;;;10438147;28;20223;-94
2021/12/01 22:56:57;;;;;;;8.60;5.07;;;12.60;99.90;;;;;;10438643;28;20229;-93
2021/12/01 23:02:01;;;;;;;6.60;4.73;;;12.60;99.90;;;;;;10438210;28;20233;-94
2021/12/01 23:07:04;;;;;;;8.70;5.07;;;12.80;99.90;;;;;;10405165;28;20234;-95
2021/12/01 23:12:07;;;;;;;7.17;4.73;;;12.40;99.90;;;;;;10408070;28;20258;-94
2021/12/01 23:17:09;;;;;;;7.90;4.07;;;12.90;99.90;;;;;;10434509;28;20251;-93
2021/12/01 23:22:14;;;;;;;6.60;3.60;;;12.00;99.90;;;;;;10432650;28;20286;-93
2021/12/01 23:27:31;;;;;;;7.20;3.90;;;12.00;99.90;;;;;;10452970;28;20263;-94
2021/12/01 23:33:03;;;;;;;10.03;4.80;;;11.80;99.90;;;;;;10418294;28;20644;-93
2021/12/01 23:38:08;;;;;;;8.53;4.70;;;13.10;99.90;;;;;;10433208;28;20230;-94
2021/12/01 23:43:13;;;;;;;6.77;4.87;;;12.90;99.90;;;;;;10423984;28;20237;-93
2021/12/01 23:53:38;;;;;;;7.73;4.20;;;13.10;99.90;;;;;;10448792;28;20777;-93
2021/12/01 23:58:41;;;;;;;5.63;4.40;;;13.10;99.90;;;;;;10425785;28;20239;-94
